sensor_id;sensor_type;location;lat;lon;timestamp;P1;durP1;ratioP1;P2;durP2;ratioP2
46589;SDS011;32313;48.722;9.362;2022-12-07T00:01:47;16.70;;;15.20;;
46589;SDS011;32313;48.722;9.362;2022-12-07T00:04:13;17.13;;;15.47;;
46589;SDS011;32313;48.722;9.362;2022-12-07T00:06:41;16.97;;;15.37;;
46589;SDS011;32313;48.722;9.362;2022-12-07T00:09:12;15.13;;;13.77;;
46589;SDS011;32313;48.722;9.362;2022-12-07T00:11:40;16.07;;;14.57;;
46589;SDS011;32313;48.722;9.362;2022-12-07T00:14:07;16.93;;;15.43;;
46589;SDS011;32313;48.722;9.362;2022-12-07T00:16:36;16.87;;;15.30;;
46589;SDS011;32313;48.722;9.362;2022-12-07T00:19:02;16.40;;;14.97;;
46589;SDS011;32313;48.722;9.362;2022-12-07T00:21:30;17.07;;;15.50;;
46589;SDS011;32313;48.722;9.362;2022-12-07T00:23:57;16.10;;;14.53;;
46589;SDS011;32313;48.722;9.362;2022-12-07T00:26:27;14.93;;;13.63;;
46589;SDS011;32313;48.722;9.362;2022-12-07T00:28:59;16.43;;;14.77;;
46589;SDS011;32313;48.722;9.362;2022-12-07T00:31:29;14.23;;;13.03;;
46589;SDS011;32313;48.722;9.362;2022-12-07T00:34:00;15.33;;;14.13;;
46589;SDS011;32313;48.722;9.362;2022-12-07T00:36:26;16.53;;;15.03;;
46589;SDS011;32313;48.722;9.362;2022-12-07T00:38:52;16.50;;;15.00;;
46589;SDS011;32313;48.722;9.362;2022-12-07T00:41:20;14.87;;;13.57;;
46589;SDS011;32313;48.722;9.362;2022-12-07T00:43:48;15.90;;;14.43;;
46589;SDS011;32313;48.722;9.362;2022-12-07T00:46:14;15.93;;;14.50;;
46589;SDS011;32313;48.722;9.362;2022-12-07T00:48:41;16.17;;;14.67;;
46589;SDS011;32313;48.722;9.362;2022-12-07T00:51:07;17.03;;;15.33;;
46589;SDS011;32313;48.722;9.362;2022-12-07T00:53:34;16.10;;;14.67;;
46589;SDS011;32313;48.722;9.362;2022-12-07T00:56:07;16.40;;;14.80;;
46589;SDS011;32313;48.722;9.362;2022-12-07T00:58:36;16.77;;;15.17;;
46589;SDS011;32313;48.722;9.362;2022-12-07T01:01:02;18.13;;;16.53;;
46589;SDS011;32313;48.722;9.362;2022-12-07T01:03:29;17.63;;;16.03;;
46589;SDS011;32313;48.722;9.362;2022-12-07T01:05:55;16.97;;;15.43;;
46589;SDS011;32313;48.722;9.362;2022-12-07T01:08:22;17.33;;;15.67;;
46589;SDS011;32313;48.722;9.362;2022-12-07T01:10:49;17.27;;;15.67;;
46589;SDS011;32313;48.722;9.362;2022-12-07T01:13:22;17.43;;;15.73;;
46589;SDS011;32313;48.722;9.362;2022-12-07T01:15:47;17.93;;;16.33;;
46589;SDS011;32313;48.722;9.362;2022-12-07T01:18:18;17.47;;;15.80;;
46589;SDS011;32313;48.722;9.362;2022-12-07T01:20:44;19.00;;;17.20;;
46589;SDS011;32313;48.722;9.362;2022-12-07T01:23:10;17.87;;;16.27;;
46589;SDS011;32313;48.722;9.362;2022-12-07T01:25:35;17.97;;;16.27;;
46589;SDS011;32313;48.722;9.362;2022-12-07T01:28:01;17.63;;;16.13;;
46589;SDS011;32313;48.722;9.362;2022-12-07T01:30:27;16.97;;;15.37;;
46589;SDS011;32313;48.722;9.362;2022-12-07T01:32:52;17.30;;;15.70;;
46589;SDS011;32313;48.722;9.362;2022-12-07T01:35:18;17.57;;;15.97;;
46589;SDS011;32313;48.722;9.362;2022-12-07T01:37:45;17.00;;;15.50;;
46589;SDS011;32313;48.722;9.362;2022-12-07T01:40:11;17.67;;;16.13;;
46589;SDS011;32313;48.722;9.362;2022-12-07T01:42:36;18.53;;;16.73;;
46589;SDS011;32313;48.722;9.362;2022-12-07T01:47:43;17.00;;;15.40;;
46589;SDS011;32313;48.722;9.362;2022-12-07T01:50:17;17.90;;;16.30;;
46589;SDS011;32313;48.722;9.362;2022-12-07T01:52:44;18.13;;;16.37;;
46589;SDS011;32313;48.722;9.362;2022-12-07T01:55:14;18.10;;;16.43;;
46589;SDS011;32313;48.722;9.362;2022-12-07T01:57:42;18.53;;;16.77;;
46589;SDS011;32313;48.722;9.362;2022-12-07T02:00:11;17.73;;;15.93;;
46589;SDS011;32313;48.722;9.362;2022-12-07T02:02:42;18.83;;;17.13;;
46589;SDS011;32313;48.722;9.362;2022-12-07T02:05:11;19.30;;;17.43;;
46589;SDS011;32313;48.722;9.362;2022-12-07T02:07:38;18.63;;;16.77;;
46589;SDS011;32313;48.722;9.362;2022-12-07T02:12:48;19.30;;;17.40;;
46589;SDS011;32313;48.722;9.362;2022-12-07T02:15:21;18.97;;;17.07;;
46589;SDS011;32313;48.722;9.362;2022-12-07T02:17:52;19.27;;;17.27;;
46589;SDS011;32313;48.722;9.362;2022-12-07T02:21:05;19.97;;;17.97;;
46589;SDS011;32313;48.722;9.362;2022-12-07T02:38:02;19.10;;;17.10;;
46589;SDS011;32313;48.722;9.362;2022-12-07T02:45:53;18.33;;;16.53;;
46589;SDS011;32313;48.722;9.362;2022-12-07T02:48:23;18.30;;;16.37;;
46589;SDS011;32313;48.722;9.362;2022-12-07T02:50:52;17.50;;;15.70;;
46589;SDS011;32313;48.722;9.362;2022-12-07T02:53:35;19.73;;;17.77;;
46589;SDS011;32313;48.722;9.362;2022-12-07T02:56:38;18.10;;;16.30;;
46589;SDS011;32313;48.722;9.362;2022-12-07T03:01:42;18.27;;;16.43;;
46589;SDS011;32313;48.722;9.362;2022-12-07T03:04:47;20.73;;;18.53;;
46589;SDS011;32313;48.722;9.362;2022-12-07T03:13:37;19.43;;;17.43;;
46589;SDS011;32313;48.722;9.362;2022-12-07T03:16:16;19.07;;;17.07;;
46589;SDS011;32313;48.722;9.362;2022-12-07T03:18:53;18.90;;;17.13;;
46589;SDS011;32313;48.722;9.362;2022-12-07T03:21:23;19.13;;;17.13;;
46589;SDS011;32313;48.722;9.362;2022-12-07T03:23:54;18.93;;;17.03;;
46589;SDS011;32313;48.722;9.362;2022-12-07T03:26:23;18.90;;;17.00;;
46589;SDS011;32313;48.722;9.362;2022-12-07T03:28:54;20.30;;;18.20;;
46589;SDS011;32313;48.722;9.362;2022-12-07T03:31:26;20.03;;;18.03;;
46589;SDS011;32313;48.722;9.362;2022-12-07T03:34:16;19.20;;;17.17;;
46589;SDS011;32313;48.722;9.362;2022-12-07T03:37:15;18.63;;;16.73;;
46589;SDS011;32313;48.722;9.362;2022-12-07T03:42:43;18.57;;;16.77;;
46589;SDS011;32313;48.722;9.362;2022-12-07T03:45:09;18.53;;;16.53;;
46589;SDS011;32313;48.722;9.362;2022-12-07T03:50:31;20.33;;;18.20;;
46589;SDS011;32313;48.722;9.362;2022-12-07T03:53:38;20.70;;;17.87;;
46589;SDS011;32313;48.722;9.362;2022-12-07T03:56:07;20.83;;;18.10;;
46589;SDS011;32313;48.722;9.362;2022-12-07T03:58:34;18.90;;;17.10;;
46589;SDS011;32313;48.722;9.362;2022-12-07T04:01:01;19.37;;;17.37;;
46589;SDS011;32313;48.722;9.362;2022-12-07T04:03:26;19.97;;;17.93;;
46589;SDS011;32313;48.722;9.362;2022-12-07T04:05:52;20.10;;;18.13;;
46589;SDS011;32313;48.722;9.362;2022-12-07T04:08:18;19.03;;;17.07;;
46589;SDS011;32313;48.722;9.362;2022-12-07T04:10:44;20.13;;;18.03;;
46589;SDS011;32313;48.722;9.362;2022-12-07T04:13:10;18.43;;;16.47;;
46589;SDS011;32313;48.722;9.362;2022-12-07T04:15:35;18.63;;;16.70;;
46589;SDS011;32313;48.722;9.362;2022-12-07T04:18:01;18.97;;;16.97;;
46589;SDS011;32313;48.722;9.362;2022-12-07T04:20:27;20.03;;;18.00;;
46589;SDS011;32313;48.722;9.362;2022-12-07T04:22:53;19.13;;;17.13;;
46589;SDS011;32313;48.722;9.362;2022-12-07T04:25:18;19.80;;;17.80;;
46589;SDS011;32313;48.722;9.362;2022-12-07T04:27:44;20.60;;;18.10;;
46589;SDS011;32313;48.722;9.362;2022-12-07T04:30:10;20.93;;;18.73;;
46589;SDS011;32313;48.722;9.362;2022-12-07T04:32:35;20.07;;;18.00;;
46589;SDS011;32313;48.722;9.362;2022-12-07T04:35:02;18.93;;;16.73;;
46589;SDS011;32313;48.722;9.362;2022-12-07T04:37:28;20.83;;;18.63;;
46589;SDS011;32313;48.722;9.362;2022-12-07T04:39:53;20.17;;;18.13;;
46589;SDS011;32313;48.722;9.362;2022-12-07T04:42:19;21.27;;;19.07;;
46589;SDS011;32313;48.722;9.362;2022-12-07T04:44:45;21.30;;;18.87;;
46589;SDS011;32313;48.722;9.362;2022-12-07T04:47:10;21.80;;;18.80;;
46589;SDS011;32313;48.722;9.362;2022-12-07T04:49:36;20.67;;;18.50;;
46589;SDS011;32313;48.722;9.362;2022-12-07T04:52:02;21.70;;;19.07;;
46589;SDS011;32313;48.722;9.362;2022-12-07T04:54:27;24.33;;;20.53;;
46589;SDS011;32313;48.722;9.362;2022-12-07T04:56:56;23.70;;;20.10;;
46589;SDS011;32313;48.722;9.362;2022-12-07T04:59:22;26.50;;;22.23;;
46589;SDS011;32313;48.722;9.362;2022-12-07T05:01:47;27.23;;;21.63;;
46589;SDS011;32313;48.722;9.362;2022-12-07T05:04:13;25.83;;;21.37;;
46589;SDS011;32313;48.722;9.362;2022-12-07T05:06:41;24.43;;;21.73;;
46589;SDS011;32313;48.722;9.362;2022-12-07T05:09:07;27.47;;;22.53;;
46589;SDS011;32313;48.722;9.362;2022-12-07T05:11:33;34.07;;;24.33;;
46589;SDS011;32313;48.722;9.362;2022-12-07T05:14:09;25.33;;;21.43;;
46589;SDS011;32313;48.722;9.362;2022-12-07T05:16:35;25.90;;;22.80;;
46589;SDS011;32313;48.722;9.362;2022-12-07T05:19:01;29.37;;;23.40;;
46589;SDS011;32313;48.722;9.362;2022-12-07T05:21:26;31.27;;;24.13;;
46589;SDS011;32313;48.722;9.362;2022-12-07T05:23:52;27.87;;;21.90;;
46589;SDS011;32313;48.722;9.362;2022-12-07T05:26:18;30.07;;;24.70;;
46589;SDS011;32313;48.722;9.362;2022-12-07T05:28:43;30.53;;;24.33;;
46589;SDS011;32313;48.722;9.362;2022-12-07T05:31:09;31.87;;;25.27;;
46589;SDS011;32313;48.722;9.362;2022-12-07T05:33:35;27.67;;;24.17;;
46589;SDS011;32313;48.722;9.362;2022-12-07T05:36:01;25.97;;;23.03;;
46589;SDS011;32313;48.722;9.362;2022-12-07T05:38:32;30.57;;;23.93;;
46589;SDS011;32313;48.722;9.362;2022-12-07T05:41:04;31.67;;;25.50;;
46589;SDS011;32313;48.722;9.362;2022-12-07T05:43:31;33.60;;;24.80;;
46589;SDS011;32313;48.722;9.362;2022-12-07T05:45:57;30.63;;;24.77;;
46589;SDS011;32313;48.722;9.362;2022-12-07T05:48:24;30.57;;;23.87;;
46589;SDS011;32313;48.722;9.362;2022-12-07T05:50:50;32.07;;;26.03;;
46589;SDS011;32313;48.722;9.362;2022-12-07T05:53:17;29.30;;;24.93;;
46589;SDS011;32313;48.722;9.362;2022-12-07T05:55:43;29.47;;;24.57;;
46589;SDS011;32313;48.722;9.362;2022-12-07T05:58:09;27.73;;;23.57;;
46589;SDS011;32313;48.722;9.362;2022-12-07T06:00:57;30.57;;;24.47;;
46589;SDS011;32313;48.722;9.362;2022-12-07T06:03:22;29.27;;;24.33;;
46589;SDS011;32313;48.722;9.362;2022-12-07T06:05:48;29.83;;;24.87;;
46589;SDS011;32313;48.722;9.362;2022-12-07T06:08:14;29.63;;;25.63;;
46589;SDS011;32313;48.722;9.362;2022-12-07T06:10:40;29.53;;;24.87;;
46589;SDS011;32313;48.722;9.362;2022-12-07T06:13:07;27.67;;;24.63;;
46589;SDS011;32313;48.722;9.362;2022-12-07T06:15:36;30.80;;;23.83;;
46589;SDS011;32313;48.722;9.362;2022-12-07T06:18:02;28.90;;;23.80;;
46589;SDS011;32313;48.722;9.362;2022-12-07T06:20:27;27.57;;;23.80;;
46589;SDS011;32313;48.722;9.362;2022-12-07T06:22:53;27.80;;;23.40;;
46589;SDS011;32313;48.722;9.362;2022-12-07T06:25:19;29.83;;;23.20;;
46589;SDS011;32313;48.722;9.362;2022-12-07T06:27:44;28.63;;;23.77;;
46589;SDS011;32313;48.722;9.362;2022-12-07T06:30:10;25.20;;;22.47;;
46589;SDS011;32313;48.722;9.362;2022-12-07T06:32:36;27.07;;;23.33;;
46589;SDS011;32313;48.722;9.362;2022-12-07T06:35:02;27.53;;;23.23;;
46589;SDS011;32313;48.722;9.362;2022-12-07T06:37:28;29.43;;;23.03;;
46589;SDS011;32313;48.722;9.362;2022-12-07T06:39:54;25.10;;;22.23;;
46589;SDS011;32313;48.722;9.362;2022-12-07T06:42:20;31.00;;;24.20;;
46589;SDS011;32313;48.722;9.362;2022-12-07T06:44:46;27.47;;;23.07;;
46589;SDS011;32313;48.722;9.362;2022-12-07T06:47:11;29.00;;;24.17;;
46589;SDS011;32313;48.722;9.362;2022-12-07T06:49:37;27.50;;;22.90;;
46589;SDS011;32313;48.722;9.362;2022-12-07T06:52:03;30.00;;;24.17;;
46589;SDS011;32313;48.722;9.362;2022-12-07T06:54:30;34.10;;;27.07;;
46589;SDS011;32313;48.722;9.362;2022-12-07T06:56:56;41.93;;;30.10;;
46589;SDS011;32313;48.722;9.362;2022-12-07T06:59:22;45.93;;;33.97;;
46589;SDS011;32313;48.722;9.362;2022-12-07T07:01:48;36.47;;;31.13;;
46589;SDS011;32313;48.722;9.362;2022-12-07T07:04:13;37.03;;;28.33;;
46589;SDS011;32313;48.722;9.362;2022-12-07T07:06:39;37.03;;;28.73;;
46589;SDS011;32313;48.722;9.362;2022-12-07T07:09:05;34.90;;;28.07;;
46589;SDS011;32313;48.722;9.362;2022-12-07T07:11:31;29.27;;;24.30;;
46589;SDS011;32313;48.722;9.362;2022-12-07T07:13:56;33.67;;;23.97;;
46589;SDS011;32313;48.722;9.362;2022-12-07T07:16:27;30.33;;;24.43;;
46589;SDS011;32313;48.722;9.362;2022-12-07T07:18:54;31.57;;;24.73;;
46589;SDS011;32313;48.722;9.362;2022-12-07T07:21:20;31.97;;;25.43;;
46589;SDS011;32313;48.722;9.362;2022-12-07T07:23:46;30.30;;;24.37;;
46589;SDS011;32313;48.722;9.362;2022-12-07T07:26:11;34.77;;;26.13;;
46589;SDS011;32313;48.722;9.362;2022-12-07T07:28:37;33.07;;;25.10;;
46589;SDS011;32313;48.722;9.362;2022-12-07T07:31:03;32.67;;;26.13;;
46589;SDS011;32313;48.722;9.362;2022-12-07T07:33:29;30.67;;;24.90;;
46589;SDS011;32313;48.722;9.362;2022-12-07T07:35:54;28.10;;;23.03;;
46589;SDS011;32313;48.722;9.362;2022-12-07T07:38:20;29.77;;;22.77;;
46589;SDS011;32313;48.722;9.362;2022-12-07T07:40:46;27.20;;;21.73;;
46589;SDS011;32313;48.722;9.362;2022-12-07T07:43:17;32.73;;;23.80;;
46589;SDS011;32313;48.722;9.362;2022-12-07T07:45:43;31.50;;;25.63;;
46589;SDS011;32313;48.722;9.362;2022-12-07T07:48:09;30.67;;;24.87;;
46589;SDS011;32313;48.722;9.362;2022-12-07T07:50:35;29.77;;;24.03;;
46589;SDS011;32313;48.722;9.362;2022-12-07T07:53:01;32.10;;;23.37;;
46589;SDS011;32313;48.722;9.362;2022-12-07T07:55:26;30.63;;;23.20;;
46589;SDS011;32313;48.722;9.362;2022-12-07T07:57:52;24.93;;;21.90;;
46589;SDS011;32313;48.722;9.362;2022-12-07T08:00:19;27.60;;;22.80;;
46589;SDS011;32313;48.722;9.362;2022-12-07T08:02:45;30.33;;;23.33;;
46589;SDS011;32313;48.722;9.362;2022-12-07T08:05:11;28.87;;;23.03;;
46589;SDS011;32313;48.722;9.362;2022-12-07T08:07:37;26.43;;;22.17;;
46589;SDS011;32313;48.722;9.362;2022-12-07T08:10:03;29.20;;;23.20;;
46589;SDS011;32313;48.722;9.362;2022-12-07T08:12:29;29.57;;;23.53;;
46589;SDS011;32313;48.722;9.362;2022-12-07T08:14:56;33.40;;;22.10;;
46589;SDS011;32313;48.722;9.362;2022-12-07T08:17:22;27.23;;;22.80;;
46589;SDS011;32313;48.722;9.362;2022-12-07T08:19:47;26.43;;;22.10;;
46589;SDS011;32313;48.722;9.362;2022-12-07T08:22:13;26.13;;;22.73;;
46589;SDS011;32313;48.722;9.362;2022-12-07T08:24:39;25.57;;;22.37;;
46589;SDS011;32313;48.722;9.362;2022-12-07T08:27:04;27.47;;;22.87;;
46589;SDS011;32313;48.722;9.362;2022-12-07T08:29:30;25.93;;;22.50;;
46589;SDS011;32313;48.722;9.362;2022-12-07T08:31:56;22.73;;;20.33;;
46589;SDS011;32313;48.722;9.362;2022-12-07T08:34:21;23.93;;;21.27;;
46589;SDS011;32313;48.722;9.362;2022-12-07T08:36:47;24.70;;;20.93;;
46589;SDS011;32313;48.722;9.362;2022-12-07T08:39:12;21.53;;;19.23;;
46589;SDS011;32313;48.722;9.362;2022-12-07T08:41:38;22.00;;;19.70;;
46589;SDS011;32313;48.722;9.362;2022-12-07T08:44:04;19.17;;;17.27;;
46589;SDS011;32313;48.722;9.362;2022-12-07T08:46:34;19.63;;;17.53;;
46589;SDS011;32313;48.722;9.362;2022-12-07T08:49:08;17.97;;;16.27;;
46589;SDS011;32313;48.722;9.362;2022-12-07T08:51:37;19.23;;;17.33;;
46589;SDS011;32313;48.722;9.362;2022-12-07T08:54:04;17.20;;;15.60;;
46589;SDS011;32313;48.722;9.362;2022-12-07T08:56:32;18.63;;;16.83;;
46589;SDS011;32313;48.722;9.362;2022-12-07T08:58:59;17.80;;;16.00;;
46589;SDS011;32313;48.722;9.362;2022-12-07T09:01:25;16.87;;;15.23;;
46589;SDS011;32313;48.722;9.362;2022-12-07T09:03:50;17.17;;;15.53;;
46589;SDS011;32313;48.722;9.362;2022-12-07T09:06:16;15.50;;;14.07;;
46589;SDS011;32313;48.722;9.362;2022-12-07T09:08:42;17.13;;;15.43;;
46589;SDS011;32313;48.722;9.362;2022-12-07T09:11:12;15.30;;;13.90;;
46589;SDS011;32313;48.722;9.362;2022-12-07T09:13:37;16.23;;;14.80;;
46589;SDS011;32313;48.722;9.362;2022-12-07T09:16:03;14.90;;;13.50;;
46589;SDS011;32313;48.722;9.362;2022-12-07T09:18:29;15.73;;;14.07;;
46589;SDS011;32313;48.722;9.362;2022-12-07T09:20:55;15.33;;;13.33;;
46589;SDS011;32313;48.722;9.362;2022-12-07T09:23:21;14.90;;;13.30;;
46589;SDS011;32313;48.722;9.362;2022-12-07T09:25:47;13.77;;;12.47;;
46589;SDS011;32313;48.722;9.362;2022-12-07T09:28:13;13.87;;;12.47;;
46589;SDS011;32313;48.722;9.362;2022-12-07T09:30:39;12.67;;;11.47;;
46589;SDS011;32313;48.722;9.362;2022-12-07T09:33:11;12.47;;;11.30;;
46589;SDS011;32313;48.722;9.362;2022-12-07T09:35:36;11.90;;;10.80;;
46589;SDS011;32313;48.722;9.362;2022-12-07T09:38:02;11.33;;;10.33;;
46589;SDS011;32313;48.722;9.362;2022-12-07T09:40:28;12.53;;;11.30;;
46589;SDS011;32313;48.722;9.362;2022-12-07T09:42:54;10.83;;;9.83;;
46589;SDS011;32313;48.722;9.362;2022-12-07T09:45:22;11.67;;;10.57;;
46589;SDS011;32313;48.722;9.362;2022-12-07T09:47:59;10.30;;;9.40;;
46589;SDS011;32313;48.722;9.362;2022-12-07T09:50:26;13.93;;;12.83;;
46589;SDS011;32313;48.722;9.362;2022-12-07T09:52:53;11.13;;;10.23;;
46589;SDS011;32313;48.722;9.362;2022-12-07T09:55:30;11.77;;;10.63;;
46589;SDS011;32313;48.722;9.362;2022-12-07T09:57:56;19.47;;;13.07;;
46589;SDS011;32313;48.722;9.362;2022-12-07T10:00:23;12.10;;;11.00;;
46589;SDS011;32313;48.722;9.362;2022-12-07T10:03:00;11.33;;;10.30;;
46589;SDS011;32313;48.722;9.362;2022-12-07T10:07:55;10.63;;;9.83;;
46589;SDS011;32313;48.722;9.362;2022-12-07T10:10:31;11.43;;;10.40;;
46589;SDS011;32313;48.722;9.362;2022-12-07T10:13:00;10.73;;;9.77;;
46589;SDS011;32313;48.722;9.362;2022-12-07T10:21:19;11.43;;;10.43;;
46589;SDS011;32313;48.722;9.362;2022-12-07T10:24:05;13.30;;;11.30;;
46589;SDS011;32313;48.722;9.362;2022-12-07T10:26:49;11.33;;;10.33;;
46589;SDS011;32313;48.722;9.362;2022-12-07T10:29:50;12.13;;;11.03;;
46589;SDS011;32313;48.722;9.362;2022-12-07T10:34:41;10.37;;;9.47;;
46589;SDS011;32313;48.722;9.362;2022-12-07T10:42:17;10.80;;;9.90;;
46589;SDS011;32313;48.722;9.362;2022-12-07T10:44:48;11.43;;;10.00;;
46589;SDS011;32313;48.722;9.362;2022-12-07T11:00:08;10.20;;;9.40;;
46589;SDS011;32313;48.722;9.362;2022-12-07T11:11:16;11.20;;;9.20;;
46589;SDS011;32313;48.722;9.362;2022-12-07T11:13:49;9.87;;;9.07;;
46589;SDS011;32313;48.722;9.362;2022-12-07T11:19:11;9.57;;;8.63;;
46589;SDS011;32313;48.722;9.362;2022-12-07T11:21:56;10.43;;;9.53;;
46589;SDS011;32313;48.722;9.362;2022-12-07T11:24:57;9.67;;;8.77;;
46589;SDS011;32313;48.722;9.362;2022-12-07T11:30:48;10.90;;;8.87;;
46589;SDS011;32313;48.722;9.362;2022-12-07T11:41:41;10.57;;;9.47;;
46589;SDS011;32313;48.722;9.362;2022-12-07T11:44:12;11.23;;;9.67;;
46589;SDS011;32313;48.722;9.362;2022-12-07T11:49:24;10.03;;;9.13;;
46589;SDS011;32313;48.722;9.362;2022-12-07T11:51:59;9.90;;;9.00;;
46589;SDS011;32313;48.722;9.362;2022-12-07T11:54:30;10.33;;;9.33;;
46589;SDS011;32313;48.722;9.362;2022-12-07T11:57:02;10.50;;;9.50;;
46589;SDS011;32313;48.722;9.362;2022-12-07T11:59:38;9.37;;;8.63;;
46589;SDS011;32313;48.722;9.362;2022-12-07T12:02:13;9.50;;;8.70;;
46589;SDS011;32313;48.722;9.362;2022-12-07T12:07:37;9.83;;;8.93;;
46589;SDS011;32313;48.722;9.362;2022-12-07T12:10:05;10.60;;;9.60;;
46589;SDS011;32313;48.722;9.362;2022-12-07T12:15:45;22.40;;;12.33;;
46589;SDS011;32313;48.722;9.362;2022-12-07T12:18:51;28.57;;;13.67;;
46589;SDS011;32313;48.722;9.362;2022-12-07T12:21:30;11.80;;;10.63;;
46589;SDS011;32313;48.722;9.362;2022-12-07T12:24:01;11.00;;;10.00;;
46589;SDS011;32313;48.722;9.362;2022-12-07T12:26:37;10.47;;;9.40;;
46589;SDS011;32313;48.722;9.362;2022-12-07T12:29:13;11.10;;;10.00;;
46589;SDS011;32313;48.722;9.362;2022-12-07T12:37:14;10.77;;;9.77;;
46589;SDS011;32313;48.722;9.362;2022-12-07T12:42:43;9.60;;;8.90;;
46589;SDS011;32313;48.722;9.362;2022-12-07T12:45:18;10.40;;;9.27;;
46589;SDS011;32313;48.722;9.362;2022-12-07T12:50:27;10.30;;;9.30;;
46589;SDS011;32313;48.722;9.362;2022-12-07T12:52:56;9.93;;;9.03;;
46589;SDS011;32313;48.722;9.362;2022-12-07T13:00:46;8.90;;;8.20;;
46589;SDS011;32313;48.722;9.362;2022-12-07T13:03:27;8.73;;;7.93;;
46589;SDS011;32313;48.722;9.362;2022-12-07T13:08:51;9.90;;;9.00;;
46589;SDS011;32313;48.722;9.362;2022-12-07T13:11:20;9.40;;;8.60;;
46589;SDS011;32313;48.722;9.362;2022-12-07T13:16:58;10.33;;;9.47;;
46589;SDS011;32313;48.722;9.362;2022-12-07T13:24:56;11.23;;;10.33;;
46589;SDS011;32313;48.722;9.362;2022-12-07T13:27:37;11.23;;;10.23;;
46589;SDS011;32313;48.722;9.362;2022-12-07T13:30:13;10.30;;;9.40;;
46589;SDS011;32313;48.722;9.362;2022-12-07T13:32:56;11.43;;;10.43;;
46589;SDS011;32313;48.722;9.362;2022-12-07T13:35:28;12.57;;;11.27;;
46589;SDS011;32313;48.722;9.362;2022-12-07T13:37:54;11.80;;;10.60;;
46589;SDS011;32313;48.722;9.362;2022-12-07T13:40:21;12.37;;;11.27;;
46589;SDS011;32313;48.722;9.362;2022-12-07T13:42:48;11.77;;;10.60;;
46589;SDS011;32313;48.722;9.362;2022-12-07T13:45:27;11.60;;;10.50;;
46589;SDS011;32313;48.722;9.362;2022-12-07T13:48:19;10.43;;;9.63;;
46589;SDS011;32313;48.722;9.362;2022-12-07T13:50:55;11.73;;;10.63;;
46589;SDS011;32313;48.722;9.362;2022-12-07T13:53:22;11.73;;;10.73;;
46589;SDS011;32313;48.722;9.362;2022-12-07T13:55:49;10.67;;;9.77;;
46589;SDS011;32313;48.722;9.362;2022-12-07T13:58:15;10.63;;;9.73;;
46589;SDS011;32313;48.722;9.362;2022-12-07T14:00:41;10.40;;;9.50;;
46589;SDS011;32313;48.722;9.362;2022-12-07T14:05:43;12.47;;;11.33;;
46589;SDS011;32313;48.722;9.362;2022-12-07T14:10:36;11.53;;;10.60;;
46589;SDS011;32313;48.722;9.362;2022-12-07T14:16:01;11.63;;;10.53;;
46589;SDS011;32313;48.722;9.362;2022-12-07T14:18:29;11.30;;;10.40;;
46589;SDS011;32313;48.722;9.362;2022-12-07T14:21:05;11.10;;;10.13;;
46589;SDS011;32313;48.722;9.362;2022-12-07T14:23:39;11.30;;;10.17;;
46589;SDS011;32313;48.722;9.362;2022-12-07T14:26:18;12.20;;;11.07;;
46589;SDS011;32313;48.722;9.362;2022-12-07T14:28:45;13.20;;;11.43;;
46589;SDS011;32313;48.722;9.362;2022-12-07T14:31:18;11.47;;;10.37;;
46589;SDS011;32313;48.722;9.362;2022-12-07T14:33:48;11.80;;;10.77;;
46589;SDS011;32313;48.722;9.362;2022-12-07T14:36:14;12.37;;;11.27;;
46589;SDS011;32313;48.722;9.362;2022-12-07T14:38:40;11.50;;;10.50;;
46589;SDS011;32313;48.722;9.362;2022-12-07T14:41:15;10.73;;;9.73;;
46589;SDS011;32313;48.722;9.362;2022-12-07T14:44:09;12.37;;;11.20;;
46589;SDS011;32313;48.722;9.362;2022-12-07T14:46:37;11.40;;;10.43;;
46589;SDS011;32313;48.722;9.362;2022-12-07T14:49:03;11.47;;;10.43;;
46589;SDS011;32313;48.722;9.362;2022-12-07T14:51:28;11.87;;;10.67;;
46589;SDS011;32313;48.722;9.362;2022-12-07T14:53:54;11.60;;;10.50;;
46589;SDS011;32313;48.722;9.362;2022-12-07T14:56:20;11.73;;;10.53;;
46589;SDS011;32313;48.722;9.362;2022-12-07T14:58:46;12.30;;;11.10;;
46589;SDS011;32313;48.722;9.362;2022-12-07T15:01:13;12.23;;;10.80;;
46589;SDS011;32313;48.722;9.362;2022-12-07T15:03:39;12.73;;;11.43;;
46589;SDS011;32313;48.722;9.362;2022-12-07T15:06:05;13.60;;;12.30;;
46589;SDS011;32313;48.722;9.362;2022-12-07T15:08:31;13.50;;;12.23;;
46589;SDS011;32313;48.722;9.362;2022-12-07T15:10:57;12.97;;;11.70;;
46589;SDS011;32313;48.722;9.362;2022-12-07T15:13:23;12.00;;;10.90;;
46589;SDS011;32313;48.722;9.362;2022-12-07T15:16:09;12.60;;;11.40;;
46589;SDS011;32313;48.722;9.362;2022-12-07T15:18:38;12.90;;;11.60;;
46589;SDS011;32313;48.722;9.362;2022-12-07T15:21:03;13.40;;;12.10;;
46589;SDS011;32313;48.722;9.362;2022-12-07T15:23:29;10.97;;;9.97;;
46589;SDS011;32313;48.722;9.362;2022-12-07T15:25:56;12.93;;;11.90;;
46589;SDS011;32313;48.722;9.362;2022-12-07T15:28:21;12.07;;;11.07;;
46589;SDS011;32313;48.722;9.362;2022-12-07T15:30:47;13.53;;;12.23;;
46589;SDS011;32313;48.722;9.362;2022-12-07T15:33:13;13.33;;;12.00;;
46589;SDS011;32313;48.722;9.362;2022-12-07T15:35:39;15.37;;;13.60;;
46589;SDS011;32313;48.722;9.362;2022-12-07T15:38:09;15.77;;;14.23;;
46589;SDS011;32313;48.722;9.362;2022-12-07T15:40:34;15.33;;;13.90;;
46589;SDS011;32313;48.722;9.362;2022-12-07T15:43:00;16.87;;;15.37;;
46589;SDS011;32313;48.722;9.362;2022-12-07T15:45:26;17.67;;;15.87;;
46589;SDS011;32313;48.722;9.362;2022-12-07T15:47:52;18.17;;;16.33;;
46589;SDS011;32313;48.722;9.362;2022-12-07T15:50:20;16.33;;;14.73;;
46589;SDS011;32313;48.722;9.362;2022-12-07T15:52:46;14.77;;;13.27;;
46589;SDS011;32313;48.722;9.362;2022-12-07T15:55:12;14.60;;;13.03;;
46589;SDS011;32313;48.722;9.362;2022-12-07T15:57:38;14.23;;;12.67;;
46589;SDS011;32313;48.722;9.362;2022-12-07T16:00:04;13.77;;;12.57;;
46589;SDS011;32313;48.722;9.362;2022-12-07T16:02:31;14.07;;;12.77;;
46589;SDS011;32313;48.722;9.362;2022-12-07T16:04:57;13.43;;;12.23;;
46589;SDS011;32313;48.722;9.362;2022-12-07T16:07:23;14.07;;;12.70;;
46589;SDS011;32313;48.722;9.362;2022-12-07T16:09:48;15.40;;;13.90;;
46589;SDS011;32313;48.722;9.362;2022-12-07T16:12:14;14.57;;;13.27;;
46589;SDS011;32313;48.722;9.362;2022-12-07T16:14:41;13.30;;;12.00;;
46589;SDS011;32313;48.722;9.362;2022-12-07T16:17:07;14.03;;;12.63;;
46589;SDS011;32313;48.722;9.362;2022-12-07T16:19:34;14.03;;;12.57;;
46589;SDS011;32313;48.722;9.362;2022-12-07T16:22:00;13.03;;;11.83;;
46589;SDS011;32313;48.722;9.362;2022-12-07T16:24:26;13.13;;;11.90;;
46589;SDS011;32313;48.722;9.362;2022-12-07T16:26:52;12.33;;;11.33;;
46589;SDS011;32313;48.722;9.362;2022-12-07T16:29:18;14.80;;;13.17;;
46589;SDS011;32313;48.722;9.362;2022-12-07T16:31:45;13.73;;;12.33;;
46589;SDS011;32313;48.722;9.362;2022-12-07T16:34:11;14.63;;;13.33;;
46589;SDS011;32313;48.722;9.362;2022-12-07T16:36:36;14.93;;;13.13;;
46589;SDS011;32313;48.722;9.362;2022-12-07T16:39:02;15.70;;;13.93;;
46589;SDS011;32313;48.722;9.362;2022-12-07T16:41:28;15.40;;;13.80;;
46589;SDS011;32313;48.722;9.362;2022-12-07T16:43:54;14.93;;;13.53;;
46589;SDS011;32313;48.722;9.362;2022-12-07T16:46:20;14.17;;;12.97;;
46589;SDS011;32313;48.722;9.362;2022-12-07T16:48:46;13.80;;;12.50;;
46589;SDS011;32313;48.722;9.362;2022-12-07T16:51:12;13.20;;;11.90;;